createdAt,value
2023-05-06T00:01:38.953Z,4.28
2023-05-06T00:04:08.682Z,3.25
2023-05-06T00:06:38.391Z,3.90
2023-05-06T00:09:06.532Z,3.78
2023-05-06T00:11:34.661Z,3.30
2023-05-06T00:14:02.772Z,4.13
2023-05-06T00:16:30.920Z,3.75
2023-05-06T00:18:59.090Z,3.50
2023-05-06T00:21:28.749Z,5.03
2023-05-06T00:23:57.039Z,3.17
2023-05-06T00:26:25.139Z,3.22
2023-05-06T00:28:53.306Z,3.42
2023-05-06T00:31:21.470Z,3.15
2023-05-06T00:33:49.618Z,3.15
2023-05-06T00:36:18.560Z,3.03
2023-05-06T00:38:48.103Z,2.50
2023-05-06T00:41:16.396Z,3.30
2023-05-06T00:43:44.525Z,2.53
2023-05-06T00:46:12.768Z,2.40
2023-05-06T00:48:41.158Z,2.53
2023-05-06T00:51:09.500Z,2.42
2023-05-06T00:53:37.990Z,2.80
2023-05-06T00:56:08.027Z,2.30
2023-05-06T00:58:37.197Z,2.45
2023-05-06T01:01:05.467Z,2.40
2023-05-06T01:03:34.096Z,3.65
2023-05-06T01:06:12.518Z,2.10
2023-05-06T01:08:48.790Z,2.25
2023-05-06T01:11:25.386Z,2.13
2023-05-06T01:13:59.688Z,2.47
2023-05-06T01:16:30.865Z,2.33
2023-05-06T01:19:01.633Z,2.17
2023-05-06T01:21:34.920Z,2.20
2023-05-06T01:24:04.595Z,1.73
2023-05-06T01:26:32.671Z,2.15
2023-05-06T01:29:02.106Z,2.05
2023-05-06T01:31:35.492Z,1.92
2023-05-06T01:34:15.452Z,2.35
2023-05-06T01:39:20.454Z,1.60
2023-05-06T01:41:50.138Z,1.77
2023-05-06T01:44:19.943Z,1.30
2023-05-06T01:49:19.278Z,1.80
2023-05-06T01:54:18.081Z,1.50
2023-05-06T01:56:46.590Z,2.13
2023-05-06T01:59:14.689Z,1.40
2023-05-06T02:01:42.895Z,2.38
2023-05-06T02:04:11.004Z,1.50
2023-05-06T02:06:39.117Z,2.13
2023-05-06T02:09:07.214Z,1.60
2023-05-06T02:11:36.714Z,1.50
2023-05-06T02:14:04.840Z,1.83
2023-05-06T02:16:33.131Z,1.50
2023-05-06T02:19:01.344Z,1.10
2023-05-06T02:21:29.673Z,2.10
2023-05-06T02:23:57.801Z,1.75
2023-05-06T02:26:25.889Z,2.08
2023-05-06T02:28:55.388Z,1.40
2023-05-06T02:31:23.670Z,1.20
2023-05-06T02:33:52.049Z,1.55
2023-05-06T02:36:20.145Z,1.58
2023-05-06T02:38:48.276Z,1.30
2023-05-06T02:41:16.362Z,1.35
2023-05-06T02:43:44.467Z,1.48
2023-05-06T02:46:13.985Z,1.42
2023-05-06T02:48:42.116Z,3.33
2023-05-06T02:51:10.206Z,2.05
2023-05-06T02:53:38.333Z,1.50
2023-05-06T02:56:07.322Z,1.48
2023-05-06T02:58:35.431Z,1.63
2023-05-06T03:01:03.588Z,1.75
2023-05-06T03:03:33.087Z,1.25
2023-05-06T03:06:01.243Z,1.88
2023-05-06T03:08:29.379Z,1.50
2023-05-06T03:10:57.480Z,1.60
2023-05-06T03:13:25.812Z,1.60
2023-05-06T03:15:54.941Z,1.50
2023-05-06T03:18:23.073Z,1.40
2023-05-06T03:20:52.578Z,1.23
2023-05-06T03:23:20.666Z,1.27
2023-05-06T03:25:48.772Z,1.30
2023-05-06T03:28:16.876Z,1.40
2023-05-06T03:30:45.013Z,1.33
2023-05-06T03:33:13.114Z,1.48
2023-05-06T03:35:41.255Z,1.35
2023-05-06T03:38:11.419Z,1.38
2023-05-06T03:40:39.670Z,1.38
2023-05-06T03:43:07.765Z,0.93
2023-05-06T03:45:36.199Z,1.38
2023-05-06T03:48:04.548Z,1.10
2023-05-06T03:50:32.812Z,1.20
2023-05-06T03:53:01.038Z,1.33
2023-05-06T03:55:30.561Z,1.20
2023-05-06T03:57:58.674Z,1.70
2023-05-06T04:00:26.925Z,1.05
2023-05-06T04:02:55.136Z,1.40
2023-05-06T04:05:23.341Z,1.23
2023-05-06T04:07:51.654Z,1.25
2023-05-06T04:10:19.975Z,1.13
2023-05-06T04:12:49.495Z,1.20
2023-05-06T04:15:17.704Z,1.42
2023-05-06T04:17:45.828Z,1.23
2023-05-06T04:20:14.467Z,1.73
2023-05-06T04:22:42.699Z,1.35
2023-05-06T04:25:12.167Z,1.30
2023-05-06T04:27:40.519Z,1.55
2023-05-06T04:30:11.297Z,1.30
2023-05-06T04:32:40.599Z,1.35
2023-05-06T04:35:10.203Z,1.55
2023-05-06T04:37:38.520Z,1.30
2023-05-06T04:40:07.449Z,1.38
2023-05-06T04:42:35.575Z,1.55
2023-05-06T04:45:03.700Z,1.38
2023-05-06T04:47:33.193Z,1.73
2023-05-06T04:50:01.314Z,1.58
2023-05-06T04:52:29.568Z,3.47
2023-05-06T04:54:57.690Z,16.50
2023-05-06T04:57:25.793Z,15.43
2023-05-06T04:59:53.952Z,15.63
2023-05-06T05:02:22.153Z,15.43
2023-05-06T05:04:51.871Z,15.63
2023-05-06T05:07:20.054Z,16.38
2023-05-06T05:09:48.175Z,14.70
2023-05-06T05:12:16.307Z,15.07
2023-05-06T05:14:44.492Z,14.75
2023-05-06T05:17:12.676Z,14.60
2023-05-06T05:19:41.018Z,14.35
2023-05-06T05:22:10.531Z,14.15
2023-05-06T05:24:38.631Z,11.65
2023-05-06T05:27:07.506Z,10.55
2023-05-06T05:29:35.660Z,9.98
2023-05-06T05:32:03.787Z,9.57
2023-05-06T05:34:32.671Z,9.43
2023-05-06T05:37:00.795Z,16.50
2023-05-06T05:39:30.281Z,18.65
2023-05-06T05:41:58.380Z,17.73
2023-05-06T05:44:26.494Z,20.48
2023-05-06T05:46:54.721Z,21.33
2023-05-06T05:49:22.915Z,21.13
2023-05-06T05:51:51.002Z,21.33
2023-05-06T05:54:19.059Z,20.67
2023-05-06T05:56:48.680Z,21.42
2023-05-06T05:59:16.753Z,21.98
2023-05-06T06:01:44.981Z,23.08
2023-05-06T06:04:13.124Z,24.42
2023-05-06T06:06:41.352Z,23.35
2023-05-06T06:09:10.705Z,23.33
2023-05-06T06:11:38.791Z,24.02
2023-05-06T06:14:08.278Z,21.60
2023-05-06T06:16:38.143Z,24.02
2023-05-06T06:19:06.591Z,20.52
2023-05-06T06:21:34.870Z,19.98
2023-05-06T06:24:03.020Z,17.77
2023-05-06T06:26:31.145Z,16.70
2023-05-06T06:28:59.362Z,16.08
2023-05-06T06:31:29.355Z,15.57
2023-05-06T06:33:57.707Z,15.27
2023-05-06T06:36:25.833Z,14.73
2023-05-06T06:38:53.978Z,13.73
2023-05-06T06:41:22.061Z,13.25
2023-05-06T06:43:50.216Z,16.13
2023-05-06T06:46:18.526Z,19.17
2023-05-06T06:48:48.120Z,20.67
2023-05-06T06:51:16.252Z,23.20
2023-05-06T06:53:44.391Z,26.05
2023-05-06T06:56:13.113Z,22.60
2023-05-06T06:58:41.344Z,22.35
2023-05-06T07:01:10.093Z,22.58
2023-05-06T07:03:38.340Z,19.67
2023-05-06T07:06:08.121Z,17.30
2023-05-06T07:08:36.249Z,16.08
2023-05-06T07:11:04.392Z,17.75
2023-05-06T07:13:32.519Z,15.10
2023-05-06T07:16:00.622Z,14.77
2023-05-06T07:18:28.721Z,13.48
2023-05-06T07:20:56.842Z,12.00
2023-05-06T07:23:26.358Z,13.23
2023-05-06T07:25:54.459Z,11.88
2023-05-06T07:28:22.550Z,11.23
2023-05-06T07:30:51.543Z,11.93
2023-05-06T07:33:19.732Z,10.53
2023-05-06T07:35:47.911Z,9.95
2023-05-06T07:38:16.018Z,9.93
2023-05-06T07:40:45.472Z,8.68
2023-05-06T07:43:13.630Z,9.65
2023-05-06T07:45:41.806Z,8.50
2023-05-06T07:48:09.990Z,8.30
2023-05-06T07:50:38.103Z,7.78
2023-05-06T07:53:06.202Z,7.50
2023-05-06T07:55:35.159Z,8.25
2023-05-06T07:58:04.856Z,7.50
2023-05-06T08:00:32.940Z,7.60
2023-05-06T08:03:01.238Z,8.43
2023-05-06T08:05:29.427Z,7.97
2023-05-06T08:07:57.553Z,7.88
2023-05-06T08:10:25.924Z,7.65
2023-05-06T08:12:54.092Z,7.45
2023-05-06T08:15:23.629Z,7.93
2023-05-06T08:17:51.784Z,10.88
2023-05-06T08:20:19.958Z,13.57
2023-05-06T08:22:48.107Z,21.58
2023-05-06T08:25:16.877Z,22.30
2023-05-06T08:27:45.017Z,23.13
2023-05-06T08:30:14.465Z,21.75
2023-05-06T08:32:43.954Z,23.30
2023-05-06T08:35:12.365Z,18.58
2023-05-06T08:37:41.671Z,13.63
2023-05-06T08:40:18.873Z,11.95
2023-05-06T08:42:47.818Z,11.40
2023-05-06T08:45:16.204Z,10.35
2023-05-06T08:47:46.302Z,9.15
2023-05-06T08:50:15.071Z,8.73
2023-05-06T08:52:43.280Z,8.70
2023-05-06T08:55:12.378Z,8.52
2023-05-06T08:57:41.939Z,8.00
2023-05-06T09:00:11.828Z,8.50
2023-05-06T09:02:42.916Z,8.02
2023-05-06T09:05:13.186Z,7.05
2023-05-06T09:07:41.562Z,7.00
2023-05-06T09:10:14.449Z,7.35
2023-05-06T09:12:42.702Z,6.95
2023-05-06T09:15:11.869Z,7.28
2023-05-06T09:20:12.878Z,6.38
2023-05-06T09:22:43.039Z,6.05
2023-05-06T09:25:12.063Z,6.03
2023-05-06T09:30:11.853Z,6.35
2023-05-06T09:32:40.893Z,7.85
2023-05-06T09:35:10.735Z,9.40
2023-05-06T09:37:39.734Z,8.02
2023-05-06T09:40:11.042Z,12.25
2023-05-06T09:42:39.409Z,8.98
2023-05-06T09:45:11.590Z,5.93
2023-05-06T09:47:40.117Z,6.30
2023-05-06T09:50:11.325Z,6.77
2023-05-06T09:52:39.422Z,5.63
2023-05-06T09:55:11.888Z,5.45
2023-05-06T09:57:40.741Z,5.20
2023-05-06T10:00:12.118Z,9.10
2023-05-06T10:02:42.173Z,9.90
2023-05-06T10:05:12.575Z,9.60
2023-05-06T10:07:41.882Z,8.65
2023-05-06T10:10:13.059Z,9.00
2023-05-06T10:12:41.304Z,10.70
2023-05-06T10:15:11.026Z,9.68
2023-05-06T10:17:42.686Z,9.05
2023-05-06T10:20:14.611Z,8.95
2023-05-06T10:22:49.299Z,9.00
2023-05-06T10:25:26.917Z,9.38
2023-05-06T10:27:55.045Z,7.95
2023-05-06T10:30:24.941Z,11.13
2023-05-06T10:32:57.375Z,8.15
2023-05-06T10:35:34.513Z,8.55
2023-05-06T10:38:06.250Z,8.02
2023-05-06T10:40:35.757Z,7.70
2023-05-06T10:43:28.716Z,9.70
2023-05-06T10:46:05.445Z,10.70
2023-05-06T10:48:34.170Z,10.05
2023-05-06T10:51:24.910Z,10.17
2023-05-06T10:54:02.393Z,10.70
2023-05-06T10:56:33.359Z,11.77
2023-05-06T10:59:08.167Z,11.32
2023-05-06T11:01:37.007Z,12.38
2023-05-06T11:04:10.118Z,12.38
2023-05-06T11:06:42.847Z,9.13
2023-05-06T11:09:18.955Z,12.25
2023-05-06T11:11:54.535Z,10.20
2023-05-06T11:14:32.447Z,10.55
2023-05-06T11:17:01.790Z,9.45
2023-05-06T11:22:00.422Z,7.93
2023-05-06T11:24:30.199Z,10.15
2023-05-06T11:27:01.364Z,9.50
2023-05-06T11:29:29.519Z,9.20
2023-05-06T11:31:57.642Z,8.20
2023-05-06T11:34:27.994Z,8.25
2023-05-06T11:37:04.119Z,8.77
2023-05-06T11:39:39.752Z,8.95
2023-05-06T11:42:10.431Z,8.73
2023-05-06T11:44:39.813Z,8.88
2023-05-06T11:49:38.399Z,8.93
2023-05-06T11:52:06.798Z,7.50
2023-05-06T11:54:37.101Z,8.93
2023-05-06T11:57:05.623Z,8.43
2023-05-06T11:59:37.403Z,7.78
2023-05-06T12:02:06.854Z,7.82
2023-05-06T12:07:07.594Z,7.18
2023-05-06T12:09:37.085Z,7.35
2023-05-06T12:12:06.628Z,7.07
2023-05-06T12:14:37.227Z,7.53
2023-05-06T12:17:06.127Z,9.05
2023-05-06T12:19:34.719Z,7.03
2023-05-06T12:22:19.160Z,6.07
2023-05-06T12:24:47.993Z,5.75
2023-05-06T12:27:16.326Z,6.15
2023-05-06T12:29:54.431Z,7.03
2023-05-06T12:32:22.528Z,4.88
2023-05-06T12:34:50.748Z,7.25
2023-05-06T12:37:26.444Z,5.07
2023-05-06T12:39:57.004Z,11.77
2023-05-06T12:42:26.984Z,7.07
2023-05-06T12:44:56.944Z,8.23
2023-05-06T12:47:27.032Z,7.10
2023-05-06T12:49:58.199Z,5.47
2023-05-06T12:52:28.712Z,5.70
2023-05-06T12:54:57.930Z,5.70
2023-05-06T12:57:26.218Z,6.38
2023-05-06T12:59:56.315Z,5.93
2023-05-06T13:02:26.145Z,4.65
2023-05-06T13:04:54.343Z,5.65
2023-05-06T13:07:22.590Z,4.05
2023-05-06T13:09:50.786Z,4.30
2023-05-06T13:12:18.952Z,4.40
2023-05-06T13:14:47.040Z,3.40
2023-05-06T13:17:15.781Z,3.08
2023-05-06T13:19:45.380Z,3.78
2023-05-06T13:22:13.669Z,2.47
2023-05-06T13:24:41.858Z,1.67
2023-05-06T13:27:10.162Z,2.20
2023-05-06T13:29:38.339Z,3.58
2023-05-06T13:32:08.599Z,2.40
2023-05-06T13:34:37.250Z,4.47
2023-05-06T13:37:06.915Z,4.57
2023-05-06T13:39:35.106Z,2.38
2023-05-06T13:42:05.515Z,4.47
2023-05-06T13:44:34.901Z,2.60
2023-05-06T13:47:02.994Z,3.97
2023-05-06T13:49:31.090Z,3.92
2023-05-06T13:51:59.365Z,3.50
2023-05-06T13:54:28.876Z,3.67
2023-05-06T13:59:26.421Z,4.30
2023-05-06T14:01:55.936Z,5.15
2023-05-06T14:04:24.229Z,2.80
2023-05-06T14:06:52.726Z,3.90
2023-05-06T14:09:21.001Z,3.33
2023-05-06T14:11:50.504Z,3.47
2023-05-06T14:16:46.507Z,2.63
2023-05-06T14:19:14.612Z,3.58
2023-05-06T14:21:42.764Z,3.00
2023-05-06T14:24:12.470Z,2.88
2023-05-06T14:26:41.485Z,2.97
2023-05-06T14:29:11.055Z,3.05
2023-05-06T14:31:39.219Z,5.55
2023-05-06T14:34:07.462Z,3.00
2023-05-06T14:36:35.609Z,3.80
2023-05-06T14:39:03.704Z,3.42
2023-05-06T14:41:32.097Z,7.18
2023-05-06T14:44:00.195Z,4.40
2023-05-06T14:46:29.920Z,6.53
2023-05-06T14:48:58.282Z,7.63
2023-05-06T14:51:26.471Z,3.17
2023-05-06T14:53:54.684Z,3.15
2023-05-06T14:56:22.875Z,2.22
2023-05-06T14:58:50.991Z,2.58
2023-05-06T15:01:19.096Z,3.17
2023-05-06T15:03:50.720Z,3.58
2023-05-06T15:06:18.867Z,3.45
2023-05-06T15:08:47.185Z,4.60
2023-05-06T15:11:15.363Z,4.13
2023-05-06T15:13:43.533Z,3.20
2023-05-06T15:16:11.805Z,2.85
2023-05-06T15:18:41.895Z,10.13
2023-05-06T15:21:13.359Z,3.67
2023-05-06T15:23:41.559Z,4.45
2023-05-06T15:26:09.653Z,3.85
2023-05-06T15:28:37.836Z,3.58
2023-05-06T15:31:06.017Z,4.55
2023-05-06T15:33:34.124Z,8.35
2023-05-06T15:36:02.268Z,3.55
2023-05-06T15:38:59.903Z,6.38
2023-05-06T15:41:30.470Z,5.35
2023-05-06T15:43:59.393Z,5.43
2023-05-06T15:46:27.776Z,6.88
2023-05-06T15:49:17.471Z,3.95
2023-05-06T15:51:44.014Z,10.13
2023-05-06T15:54:13.494Z,6.55
2023-05-06T15:56:41.858Z,5.90
2023-05-06T15:59:10.089Z,6.40
2023-05-06T16:04:09.581Z,5.30
2023-05-06T16:06:37.879Z,4.93
2023-05-06T16:09:06.017Z,3.47
2023-05-06T16:11:35.514Z,3.70
2023-05-06T16:16:31.554Z,3.50
2023-05-06T16:18:59.781Z,3.20
2023-05-06T16:21:28.693Z,3.42
2023-05-06T16:23:56.853Z,3.10
2023-05-06T16:26:25.140Z,4.75
2023-05-06T16:28:54.805Z,3.80
2023-05-06T16:31:23.203Z,2.20
2023-05-06T16:33:51.318Z,2.97
2023-05-06T16:36:19.436Z,1.83
2023-05-06T16:38:47.766Z,3.22
2023-05-06T16:41:15.847Z,3.15
2023-05-06T16:43:43.937Z,2.90
2023-05-06T16:46:13.449Z,3.13
2023-05-06T16:51:10.363Z,2.35
2023-05-06T16:53:38.429Z,2.35
2023-05-06T16:56:07.120Z,3.60
2023-05-06T16:58:35.229Z,2.87
2023-05-06T17:01:04.015Z,2.58
2023-05-06T17:03:33.635Z,3.30
2023-05-06T17:06:01.804Z,2.97
2023-05-06T17:11:03.878Z,13.45
2023-05-06T17:13:33.184Z,14.23
2023-05-06T17:16:01.325Z,5.15
2023-05-06T17:18:29.432Z,3.63
2023-05-06T17:20:58.925Z,6.57
2023-05-06T17:25:57.147Z,4.00
2023-05-06T17:28:25.304Z,7.65
2023-05-06T17:30:53.419Z,8.13
2023-05-06T17:33:22.617Z,12.18
2023-05-06T17:35:50.941Z,4.13
2023-05-06T17:38:20.528Z,7.80
2023-05-06T17:43:16.518Z,5.35
2023-05-06T17:45:44.608Z,5.60
2023-05-06T17:48:12.734Z,4.78
2023-05-06T17:50:41.345Z,4.50
2023-05-06T17:53:09.452Z,2.85
2023-05-06T17:55:38.926Z,4.20
2023-05-06T17:58:07.081Z,3.13
2023-05-06T18:00:35.368Z,3.42
2023-05-06T18:03:03.538Z,2.88
2023-05-06T18:05:31.654Z,2.67
2023-05-06T18:07:59.780Z,6.45
2023-05-06T18:10:27.956Z,3.92
2023-05-06T18:12:57.693Z,3.60
2023-05-06T18:15:27.079Z,6.82
2023-05-06T18:17:55.564Z,4.43
2023-05-06T18:20:23.758Z,3.72
2023-05-06T18:22:51.907Z,2.95
2023-05-06T18:25:20.381Z,7.38
2023-05-06T18:27:48.516Z,4.30
2023-05-06T18:30:18.079Z,5.25
2023-05-06T18:35:14.137Z,3.38
2023-05-06T18:37:42.214Z,2.53
2023-05-06T18:40:10.966Z,6.95
2023-05-06T18:42:39.075Z,4.90
2023-05-06T18:45:08.952Z,3.58
2023-05-06T18:47:40.181Z,3.55
2023-05-06T18:50:09.681Z,4.50
2023-05-06T18:52:37.930Z,2.22
2023-05-06T18:55:07.428Z,6.10
2023-05-06T19:00:07.199Z,4.38
2023-05-06T19:02:35.355Z,8.30
2023-05-06T19:05:06.311Z,4.53
2023-05-06T19:07:34.441Z,4.65
2023-05-06T19:10:02.529Z,6.25
2023-05-06T19:12:31.619Z,4.63
2023-05-06T19:15:00.072Z,3.50
2023-05-06T19:17:28.849Z,2.88
2023-05-06T19:19:56.964Z,4.77
2023-05-06T19:22:26.790Z,2.72
2023-05-06T19:24:54.892Z,3.67
2023-05-06T19:27:23.996Z,2.13
2023-05-06T19:29:52.204Z,2.72
2023-05-06T19:32:20.968Z,5.07
2023-05-06T19:34:49.117Z,4.23
2023-05-06T19:37:17.178Z,3.90
2023-05-06T19:39:47.647Z,3.22
2023-05-06T19:42:15.861Z,6.32
2023-05-06T19:44:43.964Z,3.75
2023-05-06T19:47:12.705Z,2.97
2023-05-06T19:49:40.797Z,3.10
2023-05-06T19:52:08.880Z,3.22
2023-05-06T19:54:36.991Z,2.33
2023-05-06T19:57:07.711Z,3.33
2023-05-06T19:59:35.823Z,4.20
2023-05-06T20:02:04.077Z,3.03
2023-05-06T20:04:32.370Z,2.80
2023-05-06T20:07:00.482Z,3.78
2023-05-06T20:09:28.596Z,3.92
2023-05-06T20:11:56.697Z,2.92
2023-05-06T20:14:26.157Z,2.00
2023-05-06T20:16:54.264Z,2.17
2023-05-06T20:19:26.381Z,2.50
2023-05-06T20:21:54.477Z,3.50
2023-05-06T20:24:23.785Z,2.67
2023-05-06T20:26:51.910Z,2.88
2023-05-06T20:29:19.987Z,1.75
2023-05-06T20:31:49.834Z,1.95
2023-05-06T20:34:19.007Z,2.45
2023-05-06T20:36:47.131Z,2.33
2023-05-06T20:39:15.184Z,1.48
2023-05-06T20:41:43.335Z,2.05
2023-05-06T20:44:11.487Z,2.13
2023-05-06T20:46:39.669Z,2.15
2023-05-06T20:49:09.356Z,1.95
2023-05-06T20:54:05.692Z,3.25
2023-05-06T20:56:33.813Z,3.50
2023-05-06T20:59:01.922Z,1.65
2023-05-06T21:01:30.560Z,1.92
2023-05-06T21:03:59.190Z,1.48
2023-05-06T21:06:28.762Z,2.28
2023-05-06T21:08:58.093Z,2.65
2023-05-06T21:11:28.768Z,3.00
2023-05-06T21:13:57.191Z,3.83
2023-05-06T21:16:25.278Z,1.70
2023-05-06T21:18:53.379Z,1.73
2023-05-06T21:21:21.479Z,1.67
2023-05-06T21:23:51.043Z,1.15
2023-05-06T21:26:19.371Z,1.10
2023-05-06T21:28:51.894Z,2.45
2023-05-06T21:31:21.243Z,1.10
2023-05-06T21:33:49.795Z,0.98
2023-05-06T21:36:17.986Z,3.08
2023-05-06T21:38:46.079Z,1.67
2023-05-06T21:41:15.675Z,0.75
2023-05-06T21:43:43.850Z,1.65
2023-05-06T21:46:11.971Z,1.88
2023-05-06T21:48:40.068Z,1.35
2023-05-06T21:51:08.183Z,2.25
2023-05-06T21:53:36.280Z,1.38
2023-05-06T21:56:04.559Z,3.15
2023-05-06T21:58:34.039Z,1.08
2023-05-06T22:01:02.147Z,1.15
2023-05-06T22:03:30.395Z,0.98
2023-05-06T22:05:58.590Z,1.42
2023-05-06T22:08:26.723Z,1.08
2023-05-06T22:10:54.878Z,1.00
2023-05-06T22:13:24.904Z,1.67
2023-05-06T22:15:55.207Z,1.40
2023-05-06T22:20:52.518Z,1.10
2023-05-06T22:23:23.067Z,1.02
2023-05-06T22:25:51.938Z,1.20
2023-05-06T22:28:20.156Z,1.20
2023-05-06T22:30:48.230Z,1.10
2023-05-06T22:33:17.794Z,0.90
2023-05-06T22:35:45.945Z,1.23
2023-05-06T22:38:14.252Z,1.20
2023-05-06T22:40:42.339Z,1.00
2023-05-06T22:43:10.471Z,1.30
2023-05-06T22:45:38.606Z,0.70
2023-05-06T22:48:07.161Z,1.20
2023-05-06T22:50:38.155Z,1.15
2023-05-06T22:53:14.578Z,1.60
2023-05-06T22:55:43.812Z,1.38
2023-05-06T22:58:11.926Z,1.40
2023-05-06T23:00:41.077Z,1.45
2023-05-06T23:03:09.192Z,1.90
2023-05-06T23:05:38.714Z,1.35
2023-05-06T23:08:07.089Z,0.80
2023-05-06T23:10:35.189Z,0.90
2023-05-06T23:13:03.470Z,0.70
2023-05-06T23:15:31.772Z,2.00
2023-05-06T23:18:00.068Z,1.25
2023-05-06T23:20:28.278Z,0.70
2023-05-06T23:22:57.740Z,1.00
2023-05-06T23:25:26.930Z,0.98
2023-05-06T23:27:55.120Z,1.50
2023-05-06T23:30:23.313Z,0.90
2023-05-06T23:32:51.443Z,0.90
2023-05-06T23:35:19.812Z,0.80
2023-05-06T23:37:47.940Z,1.27
2023-05-06T23:40:17.547Z,2.33
2023-05-06T23:42:46.101Z,2.30
2023-05-06T23:45:14.208Z,0.80
2023-05-06T23:47:42.397Z,0.90
2023-05-06T23:50:11.191Z,2.05
2023-05-06T23:52:39.721Z,2.23
2023-05-06T23:55:08.905Z,1.60
2023-05-06T23:57:38.770Z,1.10
